sensor_id;sensor_type;location;lat;lon;timestamp;temperature;humidity
44277;DHT22;29973;43.742;1.236;2023-02-03T00:01:37;-0.90;99.90
44277;DHT22;29973;43.742;1.236;2023-02-03T00:04:03;-0.90;99.90
44277;DHT22;29973;43.742;1.236;2023-02-03T00:06:30;-1.00;99.90
44277;DHT22;29973;43.742;1.236;2023-02-03T00:08:57;-1.30;99.90
44277;DHT22;29973;43.742;1.236;2023-02-03T00:11:28;-1.10;99.90
44277;DHT22;29973;43.742;1.236;2023-02-03T00:13:54;-0.40;99.90
44277;DHT22;29973;43.742;1.236;2023-02-03T00:16:20;-0.40;99.90
44277;DHT22;29973;43.742;1.236;2023-02-03T00:18:45;-0.70;99.90
44277;DHT22;29973;43.742;1.236;2023-02-03T00:21:11;-0.80;99.90
44277;DHT22;29973;43.742;1.236;2023-02-03T00:23:40;-0.80;99.90
44277;DHT22;29973;43.742;1.236;2023-02-03T00:26:11;-0.90;99.90
44277;DHT22;29973;43.742;1.236;2023-02-03T00:28:37;-1.00;99.90
44277;DHT22;29973;43.742;1.236;2023-02-03T00:31:03;-1.10;99.90
44277;DHT22;29973;43.742;1.236;2023-02-03T00:33:29;-1.10;99.90
44277;DHT22;29973;43.742;1.236;2023-02-03T00:35:54;-1.30;99.90
44277;DHT22;29973;43.742;1.236;2023-02-03T00:38:20;-1.40;99.90
44277;DHT22;29973;43.742;1.236;2023-02-03T00:40:53;-1.30;99.90
44277;DHT22;29973;43.742;1.236;2023-02-03T00:43:19;-1.30;99.90
44277;DHT22;29973;43.742;1.236;2023-02-03T00:45:45;-1.40;99.90
44277;DHT22;29973;43.742;1.236;2023-02-03T00:48:11;-1.30;99.90
44277;DHT22;29973;43.742;1.236;2023-02-03T00:50:37;-1.40;99.90
44277;DHT22;29973;43.742;1.236;2023-02-03T00:53:03;-1.60;99.90
44277;DHT22;29973;43.742;1.236;2023-02-03T00:55:28;-1.50;99.90
44277;DHT22;29973;43.742;1.236;2023-02-03T00:57:54;-1.50;99.90
44277;DHT22;29973;43.742;1.236;2023-02-03T01:00:20;-1.40;99.90
44277;DHT22;29973;43.742;1.236;2023-02-03T01:02:47;-1.60;99.90
44277;DHT22;29973;43.742;1.236;2023-02-03T01:05:12;-1.30;99.90
44277;DHT22;29973;43.742;1.236;2023-02-03T01:07:38;-1.10;99.90
44277;DHT22;29973;43.742;1.236;2023-02-03T01:10:05;-1.10;99.90
44277;DHT22;29973;43.742;1.236;2023-02-03T01:12:31;-1.20;99.90
44277;DHT22;29973;43.742;1.236;2023-02-03T01:14:57;-1.30;99.90
44277;DHT22;29973;43.742;1.236;2023-02-03T01:17:24;-1.40;99.90
44277;DHT22;29973;43.742;1.236;2023-02-03T01:19:50;-1.30;99.90
44277;DHT22;29973;43.742;1.236;2023-02-03T01:22:16;-1.40;99.90
44277;DHT22;29973;43.742;1.236;2023-02-03T01:24:42;-1.50;99.90
44277;DHT22;29973;43.742;1.236;2023-02-03T01:27:08;-1.50;99.90
44277;DHT22;29973;43.742;1.236;2023-02-03T01:29:34;-1.70;99.90
44277;DHT22;29973;43.742;1.236;2023-02-03T01:31:59;-1.60;99.90
44277;DHT22;29973;43.742;1.236;2023-02-03T01:34:25;-1.50;99.90
44277;DHT22;29973;43.742;1.236;2023-02-03T01:36:51;-1.60;99.90
44277;DHT22;29973;43.742;1.236;2023-02-03T01:39:20;-1.80;99.90
44277;DHT22;29973;43.742;1.236;2023-02-03T01:41:46;-1.70;99.90
44277;DHT22;29973;43.742;1.236;2023-02-03T01:44:35;-1.80;99.90
44277;DHT22;29973;43.742;1.236;2023-02-03T01:47:03;-1.90;99.90
44277;DHT22;29973;43.742;1.236;2023-02-03T01:49:34;-1.90;99.90
44277;DHT22;29973;43.742;1.236;2023-02-03T01:52:00;-2.00;99.90
44277;DHT22;29973;43.742;1.236;2023-02-03T01:54:30;-2.10;99.90
44277;DHT22;29973;43.742;1.236;2023-02-03T01:57:04;-2.10;99.90
44277;DHT22;29973;43.742;1.236;2023-02-03T01:59:31;-2.10;99.90
44277;DHT22;29973;43.742;1.236;2023-02-03T02:01:57;-2.10;99.90
44277;DHT22;29973;43.742;1.236;2023-02-03T02:04:27;-2.10;99.90
44277;DHT22;29973;43.742;1.236;2023-02-03T02:06:57;-2.00;99.90
44277;DHT22;29973;43.742;1.236;2023-02-03T02:09:25;-2.20;99.90
44277;DHT22;29973;43.742;1.236;2023-02-03T02:11:51;-2.30;99.90
44277;DHT22;29973;43.742;1.236;2023-02-03T02:14:17;-2.20;99.90
44277;DHT22;29973;43.742;1.236;2023-02-03T02:16:51;-2.30;99.90
44277;DHT22;29973;43.742;1.236;2023-02-03T02:27:23;-2.20;99.90
44277;DHT22;29973;43.742;1.236;2023-02-03T02:36:10;-2.00;99.90
44277;DHT22;29973;43.742;1.236;2023-02-03T02:44:34;-2.60;99.90
44277;DHT22;29973;43.742;1.236;2023-02-03T02:47:07;-2.50;99.90
44277;DHT22;29973;43.742;1.236;2023-02-03T02:52:23;-2.50;99.90
44277;DHT22;29973;43.742;1.236;2023-02-03T02:54:53;-2.30;99.90
44277;DHT22;29973;43.742;1.236;2023-02-03T02:57:23;-2.40;99.90
44277;DHT22;29973;43.742;1.236;2023-02-03T02:59:50;-2.30;99.90
44277;DHT22;29973;43.742;1.236;2023-02-03T03:02:16;-2.40;99.90
44277;DHT22;29973;43.742;1.236;2023-02-03T03:04:43;-2.50;99.90
44277;DHT22;29973;43.742;1.236;2023-02-03T03:07:19;-2.50;99.90
44277;DHT22;29973;43.742;1.236;2023-02-03T03:10:05;-2.50;99.90
44277;DHT22;29973;43.742;1.236;2023-02-03T03:12:38;-2.60;99.90
44277;DHT22;29973;43.742;1.236;2023-02-03T03:15:15;-2.50;99.90
44277;DHT22;29973;43.742;1.236;2023-02-03T03:17:58;-2.40;99.90
44277;DHT22;29973;43.742;1.236;2023-02-03T03:20:26;-2.70;99.90
44277;DHT22;29973;43.742;1.236;2023-02-03T03:22:58;-2.80;99.90
44277;DHT22;29973;43.742;1.236;2023-02-03T03:25:40;-2.70;99.90
44277;DHT22;29973;43.742;1.236;2023-02-03T03:28:13;-2.80;99.90
44277;DHT22;29973;43.742;1.236;2023-02-03T03:30:39;-2.60;99.90
44277;DHT22;29973;43.742;1.236;2023-02-03T03:35:44;-2.60;99.90
44277;DHT22;29973;43.742;1.236;2023-02-03T03:38:22;-2.60;99.90
44277;DHT22;29973;43.742;1.236;2023-02-03T03:40:54;-2.60;99.90
44277;DHT22;29973;43.742;1.236;2023-02-03T03:43:28;-2.70;99.90
44277;DHT22;29973;43.742;1.236;2023-02-03T03:46:03;-2.80;99.90
44277;DHT22;29973;43.742;1.236;2023-02-03T03:48:48;-2.80;99.90
44277;DHT22;29973;43.742;1.236;2023-02-03T03:52:03;-2.80;99.90
44277;DHT22;29973;43.742;1.236;2023-02-03T03:54:07;-2.90;99.90
44277;DHT22;29973;43.742;1.236;2023-02-03T03:56:38;-2.70;99.90
44277;DHT22;29973;43.742;1.236;2023-02-03T03:59:08;-2.90;99.90
44277;DHT22;29973;43.742;1.236;2023-02-03T04:01:36;-2.90;99.90
44277;DHT22;29973;43.742;1.236;2023-02-03T04:04:06;-2.90;99.90
44277;DHT22;29973;43.742;1.236;2023-02-03T04:06:32;-2.90;99.90
44277;DHT22;29973;43.742;1.236;2023-02-03T04:08:58;-3.00;99.90
44277;DHT22;29973;43.742;1.236;2023-02-03T04:11:23;-2.90;99.90
44277;DHT22;29973;43.742;1.236;2023-02-03T04:14:08;-2.90;99.90
44277;DHT22;29973;43.742;1.236;2023-02-03T04:16:34;-2.70;99.90
44277;DHT22;29973;43.742;1.236;2023-02-03T04:19:00;-2.80;99.90
44277;DHT22;29973;43.742;1.236;2023-02-03T04:21:25;-2.80;99.90
44277;DHT22;29973;43.742;1.236;2023-02-03T04:23:51;-2.70;99.90
44277;DHT22;29973;43.742;1.236;2023-02-03T04:26:17;-2.70;99.90
44277;DHT22;29973;43.742;1.236;2023-02-03T04:28:43;-2.80;99.90
44277;DHT22;29973;43.742;1.236;2023-02-03T04:31:09;-3.20;99.90
44277;DHT22;29973;43.742;1.236;2023-02-03T04:33:35;-3.20;99.90
44277;DHT22;29973;43.742;1.236;2023-02-03T04:36:00;-3.10;99.90
44277;DHT22;29973;43.742;1.236;2023-02-03T04:38:26;-3.00;99.90
44277;DHT22;29973;43.742;1.236;2023-02-03T04:40:52;-3.00;99.90
44277;DHT22;29973;43.742;1.236;2023-02-03T04:43:18;-3.10;99.90
44277;DHT22;29973;43.742;1.236;2023-02-03T04:45:44;-3.20;99.90
44277;DHT22;29973;43.742;1.236;2023-02-03T04:48:10;-3.10;99.90
44277;DHT22;29973;43.742;1.236;2023-02-03T04:50:35;-3.10;99.90
44277;DHT22;29973;43.742;1.236;2023-02-03T04:53:01;-3.20;99.90
44277;DHT22;29973;43.742;1.236;2023-02-03T04:55:27;-3.10;99.90
44277;DHT22;29973;43.742;1.236;2023-02-03T04:57:57;-3.00;99.90
44277;DHT22;29973;43.742;1.236;2023-02-03T05:00:24;-2.80;99.90
44277;DHT22;29973;43.742;1.236;2023-02-03T05:02:50;-2.90;99.90
44277;DHT22;29973;43.742;1.236;2023-02-03T05:05:16;-3.00;99.90
44277;DHT22;29973;43.742;1.236;2023-02-03T05:07:42;-3.00;99.90
44277;DHT22;29973;43.742;1.236;2023-02-03T05:10:09;-3.10;99.90
44277;DHT22;29973;43.742;1.236;2023-02-03T05:12:35;-3.20;99.90
44277;DHT22;29973;43.742;1.236;2023-02-03T05:15:01;-3.40;99.90
44277;DHT22;29973;43.742;1.236;2023-02-03T05:17:27;-3.30;99.90
44277;DHT22;29973;43.742;1.236;2023-02-03T05:19:52;-3.20;99.90
44277;DHT22;29973;43.742;1.236;2023-02-03T05:22:18;-3.20;99.90
44277;DHT22;29973;43.742;1.236;2023-02-03T05:24:44;-3.10;99.90
44277;DHT22;29973;43.742;1.236;2023-02-03T05:27:09;-3.20;99.90
44277;DHT22;29973;43.742;1.236;2023-02-03T05:29:35;-3.20;99.90
44277;DHT22;29973;43.742;1.236;2023-02-03T05:32:01;-3.10;99.90
44277;DHT22;29973;43.742;1.236;2023-02-03T05:34:27;-3.30;99.90
44277;DHT22;29973;43.742;1.236;2023-02-03T05:36:53;-3.40;99.90
44277;DHT22;29973;43.742;1.236;2023-02-03T05:39:20;-3.30;99.90
44277;DHT22;29973;43.742;1.236;2023-02-03T05:41:46;-3.30;99.90
44277;DHT22;29973;43.742;1.236;2023-02-03T05:44:23;-3.20;99.90
44277;DHT22;29973;43.742;1.236;2023-02-03T05:46:52;-3.10;99.90
44277;DHT22;29973;43.742;1.236;2023-02-03T05:49:18;-3.30;99.90
44277;DHT22;29973;43.742;1.236;2023-02-03T05:51:45;-3.40;99.90
44277;DHT22;29973;43.742;1.236;2023-02-03T05:54:11;-3.50;99.90
44277;DHT22;29973;43.742;1.236;2023-02-03T05:56:39;-3.60;99.90
44277;DHT22;29973;43.742;1.236;2023-02-03T05:59:05;-3.80;99.90
44277;DHT22;29973;43.742;1.236;2023-02-03T06:01:32;-3.60;99.90
44277;DHT22;29973;43.742;1.236;2023-02-03T06:03:59;-3.40;99.90
44277;DHT22;29973;43.742;1.236;2023-02-03T06:06:25;-3.40;99.90
44277;DHT22;29973;43.742;1.236;2023-02-03T06:09:06;-3.40;99.90
44277;DHT22;29973;43.742;1.236;2023-02-03T06:11:32;-3.50;99.90
44277;DHT22;29973;43.742;1.236;2023-02-03T06:14:00;-3.60;99.90
44277;DHT22;29973;43.742;1.236;2023-02-03T06:16:27;-3.70;99.90
44277;DHT22;29973;43.742;1.236;2023-02-03T06:18:54;-3.60;99.90
44277;DHT22;29973;43.742;1.236;2023-02-03T06:21:24;-3.60;99.90
44277;DHT22;29973;43.742;1.236;2023-02-03T06:23:50;-3.50;99.90
44277;DHT22;29973;43.742;1.236;2023-02-03T06:26:15;-3.30;99.90
44277;DHT22;29973;43.742;1.236;2023-02-03T06:28:42;-3.40;99.90
44277;DHT22;29973;43.742;1.236;2023-02-03T06:31:09;-3.50;99.90
44277;DHT22;29973;43.742;1.236;2023-02-03T06:33:34;-3.60;99.90
44277;DHT22;29973;43.742;1.236;2023-02-03T06:36:00;-3.90;99.90
44277;DHT22;29973;43.742;1.236;2023-02-03T06:38:26;-3.70;99.90
44277;DHT22;29973;43.742;1.236;2023-02-03T06:40:51;-3.30;99.90
44277;DHT22;29973;43.742;1.236;2023-02-03T06:43:17;-3.00;99.90
44277;DHT22;29973;43.742;1.236;2023-02-03T06:45:45;-3.00;99.90
44277;DHT22;29973;43.742;1.236;2023-02-03T06:48:12;-3.30;99.90
44277;DHT22;29973;43.742;1.236;2023-02-03T06:50:38;-3.40;99.90
44277;DHT22;29973;43.742;1.236;2023-02-03T06:53:03;-3.50;99.90
44277;DHT22;29973;43.742;1.236;2023-02-03T06:55:29;-3.60;99.90
44277;DHT22;29973;43.742;1.236;2023-02-03T06:57:55;-3.60;99.90
44277;DHT22;29973;43.742;1.236;2023-02-03T07:00:21;-3.80;99.90
44277;DHT22;29973;43.742;1.236;2023-02-03T07:02:55;-3.70;99.90
44277;DHT22;29973;43.742;1.236;2023-02-03T07:05:21;-3.80;99.90
44277;DHT22;29973;43.742;1.236;2023-02-03T07:07:47;-3.90;99.90
44277;DHT22;29973;43.742;1.236;2023-02-03T07:10:13;-3.70;99.90
44277;DHT22;29973;43.742;1.236;2023-02-03T07:12:39;-3.60;99.90
44277;DHT22;29973;43.742;1.236;2023-02-03T07:15:05;-3.70;99.90
44277;DHT22;29973;43.742;1.236;2023-02-03T07:17:30;-3.70;99.90
44277;DHT22;29973;43.742;1.236;2023-02-03T07:19:56;-3.70;99.90
44277;DHT22;29973;43.742;1.236;2023-02-03T07:22:22;-3.80;99.90
44277;DHT22;29973;43.742;1.236;2023-02-03T07:24:47;-3.70;99.90
44277;DHT22;29973;43.742;1.236;2023-02-03T07:27:13;-3.70;99.90
44277;DHT22;29973;43.742;1.236;2023-02-03T07:29:39;-3.60;99.90
44277;DHT22;29973;43.742;1.236;2023-02-03T07:32:07;-3.50;99.90
44277;DHT22;29973;43.742;1.236;2023-02-03T07:34:33;-3.40;99.90
44277;DHT22;29973;43.742;1.236;2023-02-03T07:36:59;-3.40;99.90
44277;DHT22;29973;43.742;1.236;2023-02-03T07:39:24;-3.50;99.90
44277;DHT22;29973;43.742;1.236;2023-02-03T07:41:50;-3.60;99.90
44277;DHT22;29973;43.742;1.236;2023-02-03T07:44:16;-3.60;99.90
44277;DHT22;29973;43.742;1.236;2023-02-03T07:46:41;-3.40;99.90
44277;DHT22;29973;43.742;1.236;2023-02-03T07:49:13;-3.10;99.90
44277;DHT22;29973;43.742;1.236;2023-02-03T07:51:39;-2.80;99.90
44277;DHT22;29973;43.742;1.236;2023-02-03T07:54:05;-2.80;99.90
44277;DHT22;29973;43.742;1.236;2023-02-03T07:56:31;-2.70;99.90
44277;DHT22;29973;43.742;1.236;2023-02-03T07:58:58;-2.60;99.90
44277;DHT22;29973;43.742;1.236;2023-02-03T08:01:24;-2.60;99.90
44277;DHT22;29973;43.742;1.236;2023-02-03T08:03:50;-2.30;99.90
44277;DHT22;29973;43.742;1.236;2023-02-03T08:06:17;-2.20;99.90
44277;DHT22;29973;43.742;1.236;2023-02-03T08:08:44;-2.20;99.90
44277;DHT22;29973;43.742;1.236;2023-02-03T08:11:10;-2.10;99.90
44277;DHT22;29973;43.742;1.236;2023-02-03T08:13:38;-2.00;99.90
44277;DHT22;29973;43.742;1.236;2023-02-03T08:16:04;-1.90;99.90
44277;DHT22;29973;43.742;1.236;2023-02-03T08:18:29;-1.80;99.90
44277;DHT22;29973;43.742;1.236;2023-02-03T08:20:55;-1.70;99.90
44277;DHT22;29973;43.742;1.236;2023-02-03T08:23:21;-1.50;99.90
44277;DHT22;29973;43.742;1.236;2023-02-03T08:25:53;-1.30;99.90
44277;DHT22;29973;43.742;1.236;2023-02-03T08:28:19;-1.20;99.90
44277;DHT22;29973;43.742;1.236;2023-02-03T08:30:45;-1.00;99.90
44277;DHT22;29973;43.742;1.236;2023-02-03T08:33:11;-0.80;99.90
44277;DHT22;29973;43.742;1.236;2023-02-03T08:35:36;-0.60;99.90
44277;DHT22;29973;43.742;1.236;2023-02-03T08:38:03;-0.50;99.90
44277;DHT22;29973;43.742;1.236;2023-02-03T08:40:29;-0.10;99.90
44277;DHT22;29973;43.742;1.236;2023-02-03T08:42:54;0.00;99.90
44277;DHT22;29973;43.742;1.236;2023-02-03T08:45:20;0.10;99.90
44277;DHT22;29973;43.742;1.236;2023-02-03T08:47:46;0.20;99.90
44277;DHT22;29973;43.742;1.236;2023-02-03T08:50:12;0.30;99.90
44277;DHT22;29973;43.742;1.236;2023-02-03T08:52:38;0.40;99.90
44277;DHT22;29973;43.742;1.236;2023-02-03T08:55:05;0.60;99.90
44277;DHT22;29973;43.742;1.236;2023-02-03T08:57:36;0.90;99.90
44277;DHT22;29973;43.742;1.236;2023-02-03T09:00:07;1.10;99.90
44277;DHT22;29973;43.742;1.236;2023-02-03T09:02:36;1.20;99.90
44277;DHT22;29973;43.742;1.236;2023-02-03T09:05:03;1.40;99.90
44277;DHT22;29973;43.742;1.236;2023-02-03T09:07:31;1.50;99.90
44277;DHT22;29973;43.742;1.236;2023-02-03T09:09:58;1.90;99.90
44277;DHT22;29973;43.742;1.236;2023-02-03T09:12:33;2.00;99.90
44277;DHT22;29973;43.742;1.236;2023-02-03T09:15:03;1.90;99.90
44277;DHT22;29973;43.742;1.236;2023-02-03T09:17:30;2.40;99.90
44277;DHT22;29973;43.742;1.236;2023-02-03T09:20:01;2.40;99.90
44277;DHT22;29973;43.742;1.236;2023-02-03T09:22:58;2.50;99.90
44277;DHT22;29973;43.742;1.236;2023-02-03T09:25:28;3.00;99.90
44277;DHT22;29973;43.742;1.236;2023-02-03T09:27:54;3.20;99.90
44277;DHT22;29973;43.742;1.236;2023-02-03T09:30:20;3.40;99.90
44277;DHT22;29973;43.742;1.236;2023-02-03T09:32:46;3.40;99.90
44277;DHT22;29973;43.742;1.236;2023-02-03T09:35:21;3.80;99.90
44277;DHT22;29973;43.742;1.236;2023-02-03T09:37:47;4.20;99.90
44277;DHT22;29973;43.742;1.236;2023-02-03T09:40:26;4.70;99.90
44277;DHT22;29973;43.742;1.236;2023-02-03T09:45:27;9.10;99.90
44277;DHT22;29973;43.742;1.236;2023-02-03T09:48:09;10.40;95.70
44277;DHT22;29973;43.742;1.236;2023-02-03T09:50:47;11.10;92.40
44277;DHT22;29973;43.742;1.236;2023-02-03T09:53:49;11.10;87.40
44277;DHT22;29973;43.742;1.236;2023-02-03T09:56:39;12.60;82.40
44277;DHT22;29973;43.742;1.236;2023-02-03T09:59:39;13.00;76.60
44277;DHT22;29973;43.742;1.236;2023-02-03T10:05:45;12.20;71.40
44277;DHT22;29973;43.742;1.236;2023-02-03T10:14:49;14.60;65.80
44277;DHT22;29973;43.742;1.236;2023-02-03T10:17:26;14.90;63.50
44277;DHT22;29973;43.742;1.236;2023-02-03T10:20:18;15.30;60.60
44277;DHT22;29973;43.742;1.236;2023-02-03T10:22:59;16.10;62.70
44277;DHT22;29973;43.742;1.236;2023-02-03T10:25:47;15.60;65.20
44277;DHT22;29973;43.742;1.236;2023-02-03T10:28:41;14.20;68.00
44277;DHT22;29973;43.742;1.236;2023-02-03T10:31:34;15.60;62.00
44277;DHT22;29973;43.742;1.236;2023-02-03T10:34:33;15.60;59.60
44277;DHT22;29973;43.742;1.236;2023-02-03T10:38:00;15.60;57.20
44277;DHT22;29973;43.742;1.236;2023-02-03T10:40:30;16.50;59.30
44277;DHT22;29973;43.742;1.236;2023-02-03T10:42:56;17.50;55.70
44277;DHT22;29973;43.742;1.236;2023-02-03T10:45:40;15.70;63.40
44277;DHT22;29973;43.742;1.236;2023-02-03T10:48:12;14.00;69.00
44277;DHT22;29973;43.742;1.236;2023-02-03T10:50:45;14.20;72.80
44277;DHT22;29973;43.742;1.236;2023-02-03T10:53:19;14.10;69.20
44277;DHT22;29973;43.742;1.236;2023-02-03T10:55:48;13.50;72.60
44277;DHT22;29973;43.742;1.236;2023-02-03T10:58:26;14.20;70.90
44277;DHT22;29973;43.742;1.236;2023-02-03T11:01:03;16.00;64.90
44277;DHT22;29973;43.742;1.236;2023-02-03T11:03:30;15.80;62.80
44277;DHT22;29973;43.742;1.236;2023-02-03T11:06:15;14.10;63.30
44277;DHT22;29973;43.742;1.236;2023-02-03T11:08:44;15.70;60.00
44277;DHT22;29973;43.742;1.236;2023-02-03T11:11:29;17.10;56.50
44277;DHT22;29973;43.742;1.236;2023-02-03T11:16:30;15.30;60.30
44277;DHT22;29973;43.742;1.236;2023-02-03T11:19:02;15.90;58.80
44277;DHT22;29973;43.742;1.236;2023-02-03T11:21:29;16.80;55.90
44277;DHT22;29973;43.742;1.236;2023-02-03T11:26:54;16.70;57.50
44277;DHT22;29973;43.742;1.236;2023-02-03T11:29:29;17.10;55.90
44277;DHT22;29973;43.742;1.236;2023-02-03T11:31:57;18.40;54.00
44277;DHT22;29973;43.742;1.236;2023-02-03T11:34:27;17.70;55.00
44277;DHT22;29973;43.742;1.236;2023-02-03T11:36:53;16.90;53.60
44277;DHT22;29973;43.742;1.236;2023-02-03T11:39:27;17.50;54.40
44277;DHT22;29973;43.742;1.236;2023-02-03T11:41:53;16.50;56.90
44277;DHT22;29973;43.742;1.236;2023-02-03T11:44:27;17.10;56.70
44277;DHT22;29973;43.742;1.236;2023-02-03T11:47:00;18.30;54.30
44277;DHT22;29973;43.742;1.236;2023-02-03T11:52:15;18.90;49.40
44277;DHT22;29973;43.742;1.236;2023-02-03T12:03:02;15.60;56.90
44277;DHT22;29973;43.742;1.236;2023-02-03T12:05:41;16.30;54.00
44277;DHT22;29973;43.742;1.236;2023-02-03T12:16:30;16.40;55.40
44277;DHT22;29973;43.742;1.236;2023-02-03T12:19:18;16.50;53.40
44277;DHT22;29973;43.742;1.236;2023-02-03T12:22:03;16.60;52.70
44277;DHT22;29973;43.742;1.236;2023-02-03T12:27:50;16.60;52.30
44277;DHT22;29973;43.742;1.236;2023-02-03T12:33:07;17.70;49.70
44277;DHT22;29973;43.742;1.236;2023-02-03T12:36:27;17.60;51.70
44277;DHT22;29973;43.742;1.236;2023-02-03T12:38:43;15.90;53.20
44277;DHT22;29973;43.742;1.236;2023-02-03T12:45:28;18.20;51.60
44277;DHT22;29973;43.742;1.236;2023-02-03T12:47:46;20.30;47.50
44277;DHT22;29973;43.742;1.236;2023-02-03T12:50:38;19.50;47.30
44277;DHT22;29973;43.742;1.236;2023-02-03T12:53:18;18.30;49.40
44277;DHT22;29973;43.742;1.236;2023-02-03T12:56:07;17.00;51.60
44277;DHT22;29973;43.742;1.236;2023-02-03T12:58:46;17.50;54.40
44277;DHT22;29973;43.742;1.236;2023-02-03T13:01:19;18.30;47.40
44277;DHT22;29973;43.742;1.236;2023-02-03T13:04:00;18.30;48.70
44277;DHT22;29973;43.742;1.236;2023-02-03T13:06:47;20.20;46.10
44277;DHT22;29973;43.742;1.236;2023-02-03T13:09:21;19.90;46.00
44277;DHT22;29973;43.742;1.236;2023-02-03T13:12:12;16.70;49.40
44277;DHT22;29973;43.742;1.236;2023-02-03T13:19:43;15.30;54.90
44277;DHT22;29973;43.742;1.236;2023-02-03T13:22:14;17.30;52.70
44277;DHT22;29973;43.742;1.236;2023-02-03T13:24:46;16.30;54.50
44277;DHT22;29973;43.742;1.236;2023-02-03T13:27:29;18.20;50.00
44277;DHT22;29973;43.742;1.236;2023-02-03T13:30:35;18.00;50.50
44277;DHT22;29973;43.742;1.236;2023-02-03T13:43:47;16.60;53.30
44277;DHT22;29973;43.742;1.236;2023-02-03T13:46:26;17.10;53.10
44277;DHT22;29973;43.742;1.236;2023-02-03T13:48:56;19.50;48.40
44277;DHT22;29973;43.742;1.236;2023-02-03T13:51:26;20.90;45.50
44277;DHT22;29973;43.742;1.236;2023-02-03T13:54:11;19.30;46.70
44277;DHT22;29973;43.742;1.236;2023-02-03T13:56:39;19.10;45.60
44277;DHT22;29973;43.742;1.236;2023-02-03T14:01:39;19.30;47.70
44277;DHT22;29973;43.742;1.236;2023-02-03T14:07:00;19.60;46.60
44277;DHT22;29973;43.742;1.236;2023-02-03T14:14:41;20.00;44.70
44277;DHT22;29973;43.742;1.236;2023-02-03T14:20:00;19.80;45.50
44277;DHT22;29973;43.742;1.236;2023-02-03T14:22:26;21.50;43.00
44277;DHT22;29973;43.742;1.236;2023-02-03T14:24:54;19.50;46.60
44277;DHT22;29973;43.742;1.236;2023-02-03T14:27:26;20.10;46.00
44277;DHT22;29973;43.742;1.236;2023-02-03T14:35:16;17.80;47.90
44277;DHT22;29973;43.742;1.236;2023-02-03T14:37:51;19.80;45.80
44277;DHT22;29973;43.742;1.236;2023-02-03T14:43:04;18.20;46.90
44277;DHT22;29973;43.742;1.236;2023-02-03T14:48:45;17.90;46.10
44277;DHT22;29973;43.742;1.236;2023-02-03T14:59:03;18.30;50.00
44277;DHT22;29973;43.742;1.236;2023-02-03T15:09:25;19.50;46.30
44277;DHT22;29973;43.742;1.236;2023-02-03T15:11:51;20.50;45.10
44277;DHT22;29973;43.742;1.236;2023-02-03T15:14:26;19.90;47.10
44277;DHT22;29973;43.742;1.236;2023-02-03T15:17:01;20.70;44.30
44277;DHT22;29973;43.742;1.236;2023-02-03T15:19:31;19.20;45.60
44277;DHT22;29973;43.742;1.236;2023-02-03T15:21:57;18.30;48.30
44277;DHT22;29973;43.742;1.236;2023-02-03T15:24:23;18.50;48.70
44277;DHT22;29973;43.742;1.236;2023-02-03T15:26:55;18.20;48.30
44277;DHT22;29973;43.742;1.236;2023-02-03T15:32:16;19.60;47.50
44277;DHT22;29973;43.742;1.236;2023-02-03T15:34:47;19.50;47.70
44277;DHT22;29973;43.742;1.236;2023-02-03T15:40:07;18.60;49.20
44277;DHT22;29973;43.742;1.236;2023-02-03T15:43:08;17.80;50.60
44277;DHT22;29973;43.742;1.236;2023-02-03T15:45:39;18.20;50.60
44277;DHT22;29973;43.742;1.236;2023-02-03T15:48:30;18.10;50.60
44277;DHT22;29973;43.742;1.236;2023-02-03T15:51:18;18.00;50.70
44277;DHT22;29973;43.742;1.236;2023-02-03T15:54:06;18.20;50.30
44277;DHT22;29973;43.742;1.236;2023-02-03T15:56:47;16.20;53.90
44277;DHT22;29973;43.742;1.236;2023-02-03T15:59:32;15.10;54.50
44277;DHT22;29973;43.742;1.236;2023-02-03T16:02:00;16.00;56.40
44277;DHT22;29973;43.742;1.236;2023-02-03T16:04:29;13.70;59.00
44277;DHT22;29973;43.742;1.236;2023-02-03T16:06:55;11.30;67.10
44277;DHT22;29973;43.742;1.236;2023-02-03T16:09:43;10.40;73.60
44277;DHT22;29973;43.742;1.236;2023-02-03T16:21:57;9.10;82.30
44277;DHT22;29973;43.742;1.236;2023-02-03T16:24:39;8.90;83.90
44277;DHT22;29973;43.742;1.236;2023-02-03T16:30:22;8.50;87.60
44277;DHT22;29973;43.742;1.236;2023-02-03T16:33:16;8.30;89.00
44277;DHT22;29973;43.742;1.236;2023-02-03T16:36:11;8.20;90.00
44277;DHT22;29973;43.742;1.236;2023-02-03T16:38:57;8.10;90.60
44277;DHT22;29973;43.742;1.236;2023-02-03T16:41:44;8.10;90.70
44277;DHT22;29973;43.742;1.236;2023-02-03T16:44:28;7.90;91.20
44277;DHT22;29973;43.742;1.236;2023-02-03T16:47:28;7.70;91.70
44277;DHT22;29973;43.742;1.236;2023-02-03T16:50:21;7.60;92.20
44277;DHT22;29973;43.742;1.236;2023-02-03T16:53:11;7.60;92.40
44277;DHT22;29973;43.742;1.236;2023-02-03T16:55:37;7.30;92.70
44277;DHT22;29973;43.742;1.236;2023-02-03T16:58:03;7.10;93.40
44277;DHT22;29973;43.742;1.236;2023-02-03T17:00:29;6.80;94.30
44277;DHT22;29973;43.742;1.236;2023-02-03T17:02:54;6.80;94.40
44277;DHT22;29973;43.742;1.236;2023-02-03T17:05:21;6.70;94.80
44277;DHT22;29973;43.742;1.236;2023-02-03T17:07:47;6.50;94.90
44277;DHT22;29973;43.742;1.236;2023-02-03T17:10:15;6.10;96.50
44277;DHT22;29973;43.742;1.236;2023-02-03T17:12:41;5.90;96.60
44277;DHT22;29973;43.742;1.236;2023-02-03T17:15:07;5.70;97.60
44277;DHT22;29973;43.742;1.236;2023-02-03T17:17:33;5.70;97.50
44277;DHT22;29973;43.742;1.236;2023-02-03T17:19:59;5.50;98.00
44277;DHT22;29973;43.742;1.236;2023-02-03T17:22:26;5.40;98.70
44277;DHT22;29973;43.742;1.236;2023-02-03T17:24:52;4.90;99.00
44277;DHT22;29973;43.742;1.236;2023-02-03T17:27:18;4.70;99.90
44277;DHT22;29973;43.742;1.236;2023-02-03T17:29:44;4.70;99.90
44277;DHT22;29973;43.742;1.236;2023-02-03T17:32:10;4.70;99.90
44277;DHT22;29973;43.742;1.236;2023-02-03T17:34:40;4.60;99.90
44277;DHT22;29973;43.742;1.236;2023-02-03T17:37:06;4.30;99.90
44277;DHT22;29973;43.742;1.236;2023-02-03T17:39:32;4.20;99.90
44277;DHT22;29973;43.742;1.236;2023-02-03T17:41:57;4.20;99.90
44277;DHT22;29973;43.742;1.236;2023-02-03T17:44:23;4.10;99.90
44277;DHT22;29973;43.742;1.236;2023-02-03T17:46:50;4.10;99.90
44277;DHT22;29973;43.742;1.236;2023-02-03T17:49:18;4.10;99.90
44277;DHT22;29973;43.742;1.236;2023-02-03T17:51:44;3.90;99.90
44277;DHT22;29973;43.742;1.236;2023-02-03T17:54:10;4.10;99.90
44277;DHT22;29973;43.742;1.236;2023-02-03T17:56:36;4.60;99.90
44277;DHT22;29973;43.742;1.236;2023-02-03T17:59:07;4.90;99.90
44277;DHT22;29973;43.742;1.236;2023-02-03T18:01:33;4.80;99.90
44277;DHT22;29973;43.742;1.236;2023-02-03T18:04:03;4.50;99.90
44277;DHT22;29973;43.742;1.236;2023-02-03T18:06:31;4.10;99.90
44277;DHT22;29973;43.742;1.236;2023-02-03T18:09:05;3.80;99.90
44277;DHT22;29973;43.742;1.236;2023-02-03T18:11:32;3.50;99.90
44277;DHT22;29973;43.742;1.236;2023-02-03T18:13:59;3.40;99.90
44277;DHT22;29973;43.742;1.236;2023-02-03T18:16:32;3.60;99.90
44277;DHT22;29973;43.742;1.236;2023-02-03T18:19:00;3.50;99.90
44277;DHT22;29973;43.742;1.236;2023-02-03T18:21:27;3.50;99.90
44277;DHT22;29973;43.742;1.236;2023-02-03T18:23:53;3.40;99.90
44277;DHT22;29973;43.742;1.236;2023-02-03T18:26:24;3.40;99.90